createdAt,value
2019-05-02T00:02:32.630Z,6.17
2019-05-02T00:05:37.494Z,7.43
2019-05-02T00:08:43.520Z,7.23
2019-05-02T00:11:58.626Z,7.37
2019-05-02T00:15:02.130Z,5.37
2019-05-02T00:18:04.056Z,8.07
2019-05-02T00:21:09.037Z,7.70
2019-05-02T00:24:17.668Z,8.50
2019-05-02T00:27:22.392Z,7.43
2019-05-02T00:30:30.072Z,8.20
2019-05-02T00:33:35.880Z,8.47
2019-05-02T00:36:59.979Z,9.23
2019-05-02T00:40:11.296Z,8.57
2019-05-02T00:43:18.093Z,8.77
2019-05-02T00:46:22.572Z,6.23
2019-05-02T00:49:30.974Z,9.43
2019-05-02T00:52:36.651Z,7.27
2019-05-02T00:55:41.138Z,9.60
2019-05-02T00:58:45.706Z,9.13
2019-05-02T01:02:07.333Z,10.20
2019-05-02T01:05:12.311Z,9.40
2019-05-02T01:08:16.704Z,8.30
2019-05-02T01:11:22.136Z,10.40
2019-05-02T01:14:31.691Z,10.47
2019-05-02T01:17:36.864Z,9.90
2019-05-02T01:20:41.304Z,10.17
2019-05-02T01:23:45.621Z,8.87
2019-05-02T01:27:14.137Z,8.37
2019-05-02T01:30:25.494Z,6.47
2019-05-02T01:33:50.903Z,11.30
2019-05-02T01:37:20.603Z,11.03
2019-05-02T01:40:20.546Z,10.67
2019-05-02T01:43:28.767Z,9.00
2019-05-02T01:46:33.318Z,9.07
2019-05-02T01:49:38.345Z,11.07
2019-05-02T01:52:42.697Z,8.93
2019-05-02T01:55:52.091Z,7.47
2019-05-02T01:58:57.836Z,7.30
2019-05-02T02:02:01.035Z,6.80
2019-05-02T02:05:06.494Z,6.83
2019-05-02T02:08:11.197Z,6.03
2019-05-02T02:11:16.912Z,5.37
2019-05-02T02:14:21.259Z,4.37
2019-05-02T02:17:33.381Z,4.37
2019-05-02T02:20:50.270Z,6.37
2019-05-02T02:24:07.602Z,6.97
2019-05-02T02:27:11.882Z,7.67
2019-05-02T02:30:17.750Z,6.63
2019-05-02T02:33:22.286Z,5.13
2019-05-02T02:36:34.852Z,6.23
2019-05-02T02:39:38.632Z,3.60
2019-05-02T02:42:43.204Z,4.77
2019-05-02T02:46:13.991Z,5.20
2019-05-02T02:49:24.018Z,5.73
2019-05-02T02:52:25.766Z,5.10
2019-05-02T02:55:30.158Z,4.73
2019-05-02T02:58:44.162Z,4.13
2019-05-02T03:01:40.694Z,4.67
2019-05-02T03:04:46.380Z,3.47
2019-05-02T03:07:50.867Z,4.23
2019-05-02T03:10:55.569Z,3.77
2019-05-02T03:14:09.960Z,3.80
2019-05-02T03:17:20.653Z,3.33
2019-05-02T03:20:20.495Z,3.10
2019-05-02T03:23:24.784Z,3.43
2019-05-02T03:26:29.058Z,3.53
2019-05-02T03:29:41.345Z,2.60
2019-05-02T03:33:02.715Z,3.17
2019-05-02T03:35:49.060Z,3.40
2019-05-02T03:38:53.935Z,3.77
2019-05-02T03:42:02.917Z,3.20
2019-05-02T03:45:05.293Z,3.17
2019-05-02T03:48:09.853Z,3.37
2019-05-02T03:51:21.450Z,3.83
2019-05-02T03:54:20.383Z,2.50
2019-05-02T03:57:32.896Z,2.70
2019-05-02T04:00:32.163Z,2.97
2019-05-02T04:03:40.852Z,3.83
2019-05-02T04:06:42.966Z,2.80
2019-05-02T04:09:47.282Z,3.50
2019-05-02T04:12:58.234Z,3.23
2019-05-02T04:15:59.096Z,3.70
2019-05-02T04:19:06.442Z,3.37
2019-05-02T04:22:13.938Z,3.53
2019-05-02T04:25:18.971Z,2.60
2019-05-02T04:28:24.563Z,3.37
2019-05-02T04:31:31.566Z,3.70
2019-05-02T04:34:35.067Z,3.43
2019-05-02T04:37:41.184Z,3.40
2019-05-02T04:40:47.263Z,2.53
2019-05-02T04:43:57.536Z,2.20
2019-05-02T04:47:02.723Z,2.87
2019-05-02T04:50:07.964Z,3.30
2019-05-02T04:53:10.031Z,3.43
2019-05-02T04:56:14.655Z,3.27
2019-05-02T04:59:22.719Z,2.87
2019-05-02T05:02:34.654Z,3.10
2019-05-02T05:05:31.619Z,2.77
2019-05-02T05:08:38.800Z,2.87
2019-05-02T05:11:41.986Z,2.43
2019-05-02T05:14:47.460Z,2.73
2019-05-02T05:17:51.804Z,3.13
2019-05-02T05:20:57.741Z,2.90
2019-05-02T05:24:20.978Z,2.70
2019-05-02T05:27:27.392Z,2.80
2019-05-02T05:30:31.456Z,2.57
2019-05-02T05:33:37.703Z,2.60
2019-05-02T05:36:41.927Z,3.13
2019-05-02T05:39:48.697Z,2.50
2019-05-02T05:42:52.317Z,2.57
2019-05-02T05:46:09.356Z,2.20
2019-05-02T05:49:02.629Z,1.83
2019-05-02T05:52:08.048Z,2.10
2019-05-02T05:55:17.137Z,2.50
2019-05-02T05:58:18.896Z,1.60
2019-05-02T06:01:26.001Z,2.43
2019-05-02T06:04:38.917Z,2.20
2019-05-02T06:07:45.058Z,2.43
2019-05-02T06:10:49.938Z,2.83
2019-05-02T06:13:54.778Z,2.93
2019-05-02T06:16:59.582Z,2.17
2019-05-02T06:20:06.674Z,2.40
2019-05-02T06:23:16.539Z,2.40
2019-05-02T06:26:21.231Z,2.73
2019-05-02T06:29:28.254Z,2.20
2019-05-02T06:32:33.205Z,2.30
2019-05-02T06:35:38.306Z,1.83
2019-05-02T06:38:45.972Z,1.67
2019-05-02T06:41:52.190Z,1.20
2019-05-02T06:45:01.272Z,1.90
2019-05-02T06:48:05.723Z,1.60
2019-05-02T06:51:19.115Z,1.50
2019-05-02T06:54:25.271Z,1.50
2019-05-02T06:57:32.353Z,1.90
2019-05-02T07:00:56.371Z,1.40
2019-05-02T07:03:47.565Z,1.30
2019-05-02T07:06:58.586Z,1.53
2019-05-02T07:09:58.300Z,1.40
2019-05-02T07:13:10.869Z,1.20
2019-05-02T07:16:17.056Z,1.40
2019-05-02T07:19:32.502Z,1.50
2019-05-02T07:22:38.914Z,2.07
2019-05-02T07:25:43.943Z,1.90
2019-05-02T07:28:48.492Z,1.97
2019-05-02T07:31:53.596Z,1.50
2019-05-02T07:34:58.169Z,1.60
2019-05-02T07:38:02.605Z,1.57
2019-05-02T07:41:07.235Z,1.37
2019-05-02T07:44:11.651Z,1.33
2019-05-02T07:47:15.949Z,1.60
2019-05-02T07:50:26.379Z,1.00
2019-05-02T07:53:31.029Z,1.07
2019-05-02T07:56:35.392Z,1.10
2019-05-02T07:59:39.740Z,1.03
2019-05-02T08:02:44.077Z,0.70
2019-05-02T08:05:48.376Z,0.97
2019-05-02T08:08:52.959Z,0.90
2019-05-02T08:11:57.608Z,1.00
2019-05-02T08:15:02.160Z,1.30
2019-05-02T08:18:06.450Z,1.20
2019-05-02T08:21:10.752Z,1.40
2019-05-02T08:24:15.048Z,1.43
2019-05-02T08:27:41.104Z,1.20
2019-05-02T08:30:51.146Z,1.20
2019-05-02T08:33:55.501Z,1.10
2019-05-02T08:37:03.242Z,1.10
2019-05-02T08:40:10.899Z,0.90
2019-05-02T08:43:16.482Z,1.33
2019-05-02T08:46:20.746Z,1.50
2019-05-02T08:49:25.140Z,1.20
2019-05-02T08:52:29.499Z,1.13
2019-05-02T08:55:34.116Z,1.00
2019-05-02T08:58:38.438Z,0.90
2019-05-02T09:01:44.743Z,1.27
2019-05-02T09:04:58.172Z,1.07
2019-05-02T09:07:55.209Z,1.03
2019-05-02T09:10:59.551Z,1.20
2019-05-02T09:14:04.037Z,1.10
2019-05-02T09:17:15.702Z,0.90
2019-05-02T09:20:20.624Z,1.27
2019-05-02T09:23:27.367Z,0.83
2019-05-02T09:26:36.107Z,1.10
2019-05-02T09:29:37.423Z,1.23
2019-05-02T09:32:42.342Z,1.37
2019-05-02T09:35:46.857Z,0.80
2019-05-02T09:38:55.994Z,0.80
2019-05-02T09:42:02.160Z,1.07
2019-05-02T09:45:08.412Z,0.70
2019-05-02T09:48:16.911Z,1.00
2019-05-02T09:51:25.227Z,1.20
2019-05-02T09:54:29.674Z,1.67
2019-05-02T09:57:37.129Z,1.33
2019-05-02T10:00:52.975Z,1.50
2019-05-02T10:03:57.277Z,2.03
2019-05-02T10:07:02.563Z,1.13
2019-05-02T10:10:08.448Z,1.00
2019-05-02T10:13:13.635Z,1.10
2019-05-02T10:16:23.510Z,1.37
2019-05-02T10:19:26.189Z,1.30
2019-05-02T10:22:38.592Z,0.90
2019-05-02T10:25:38.979Z,1.07
2019-05-02T10:28:49.401Z,1.07
2019-05-02T10:31:49.289Z,0.80
2019-05-02T10:34:56.759Z,1.00
2019-05-02T10:38:00.063Z,1.00
2019-05-02T10:41:06.095Z,1.00
2019-05-02T10:44:12.700Z,1.00
2019-05-02T10:47:16.894Z,0.90
2019-05-02T10:50:28.767Z,1.60
2019-05-02T10:53:39.441Z,1.70
2019-05-02T10:56:43.809Z,2.10
2019-05-02T10:59:48.465Z,2.33
2019-05-02T11:03:07.499Z,3.80
2019-05-02T11:06:12.580Z,2.37
2019-05-02T11:09:22.479Z,1.77
2019-05-02T11:12:47.110Z,1.93
2019-05-02T11:16:18.828Z,2.10
2019-05-02T11:19:28.988Z,2.00
2019-05-02T11:22:33.410Z,1.67
2019-05-02T11:25:42.115Z,1.43
2019-05-02T11:28:46.562Z,1.60
2019-05-02T11:31:52.121Z,1.13
2019-05-02T11:34:56.538Z,1.57
2019-05-02T11:38:02.523Z,1.20
2019-05-02T11:41:06.910Z,1.50
2019-05-02T11:44:12.125Z,1.40
2019-05-02T11:47:17.264Z,0.97
2019-05-02T11:50:26.652Z,1.37
2019-05-02T11:53:29.562Z,1.50
2019-05-02T11:56:34.054Z,0.87
2019-05-02T11:59:38.376Z,1.43
2019-05-02T12:02:59.747Z,1.70
2019-05-02T12:06:06.647Z,1.30
2019-05-02T12:09:14.120Z,1.17
2019-05-02T12:12:18.415Z,1.53
2019-05-02T12:15:26.291Z,1.63
2019-05-02T12:18:32.484Z,1.63
2019-05-02T12:21:39.169Z,1.80
2019-05-02T12:24:45.350Z,1.73
2019-05-02T12:27:49.009Z,1.63
2019-05-02T12:30:53.457Z,2.23
2019-05-02T12:33:59.161Z,1.93
2019-05-02T12:37:03.491Z,1.60
2019-05-02T12:40:12.229Z,1.73
2019-05-02T12:43:17.129Z,2.60
2019-05-02T12:46:22.209Z,1.87
2019-05-02T12:49:27.956Z,2.10
2019-05-02T12:52:32.389Z,1.83
2019-05-02T12:55:36.962Z,1.77
2019-05-02T12:58:42.149Z,1.17
2019-05-02T13:01:46.937Z,1.30
2019-05-02T13:04:52.737Z,1.27
2019-05-02T13:07:57.200Z,1.60
2019-05-02T13:11:08.373Z,1.30
2019-05-02T13:14:19.598Z,1.70
2019-05-02T13:17:23.868Z,1.40
2019-05-02T13:20:29.347Z,1.57
2019-05-02T13:23:45.412Z,1.50
2019-05-02T13:26:51.956Z,1.67
2019-05-02T13:29:56.082Z,1.07
2019-05-02T13:33:03.465Z,2.03
2019-05-02T13:36:09.342Z,2.13
2019-05-02T13:39:39.701Z,2.60
2019-05-02T13:42:44.535Z,2.73
2019-05-02T13:45:59.399Z,3.30
2019-05-02T13:49:03.704Z,2.37
2019-05-02T13:52:09.484Z,1.73
2019-05-02T13:55:15.627Z,3.13
2019-05-02T13:58:21.650Z,2.60
2019-05-02T14:01:26.231Z,2.37
2019-05-02T14:04:32.497Z,2.40
2019-05-02T14:07:36.639Z,3.13
2019-05-02T14:10:43.243Z,2.90
2019-05-02T14:13:47.628Z,3.07
2019-05-02T14:16:53.047Z,3.03
2019-05-02T14:20:08.616Z,2.57
2019-05-02T14:23:03.420Z,3.90
2019-05-02T14:26:07.723Z,2.80
2019-05-02T14:29:16.128Z,2.87
2019-05-02T14:32:23.351Z,3.00
2019-05-02T14:35:29.493Z,3.23
2019-05-02T14:38:33.777Z,2.40
2019-05-02T14:41:41.952Z,2.60
2019-05-02T14:45:04.043Z,1.90
2019-05-02T14:47:57.219Z,2.00
2019-05-02T14:50:56.234Z,2.00
2019-05-02T14:54:08.139Z,1.20
2019-05-02T14:57:27.164Z,2.00
2019-05-02T15:00:39.458Z,2.33
2019-05-02T15:03:39.149Z,1.80
2019-05-02T15:06:47.488Z,2.00
2019-05-02T15:09:52.537Z,2.00
2019-05-02T15:12:59.767Z,1.93
2019-05-02T15:16:02.708Z,2.03
2019-05-02T15:19:06.997Z,1.73
2019-05-02T15:22:12.470Z,1.90
2019-05-02T15:25:17.939Z,1.70
2019-05-02T15:28:22.981Z,1.90
2019-05-02T15:31:33.778Z,1.60
2019-05-02T15:34:54.346Z,1.60
2019-05-02T15:38:02.636Z,1.70
2019-05-02T15:41:07.818Z,1.33
2019-05-02T15:44:12.536Z,1.90
2019-05-02T15:47:17.086Z,2.03
2019-05-02T15:50:25.537Z,1.73
2019-05-02T15:53:44.654Z,1.60
2019-05-02T15:56:59.954Z,1.57
2019-05-02T15:59:58.491Z,1.90
2019-05-02T16:03:04.374Z,1.93
2019-05-02T16:06:08.983Z,2.10
2019-05-02T16:09:13.492Z,1.90
2019-05-02T16:12:17.815Z,1.87
2019-05-02T16:15:26.327Z,1.67
2019-05-02T16:18:28.197Z,2.03
2019-05-02T16:21:38.569Z,1.83
2019-05-02T16:24:43.889Z,2.03
2019-05-02T16:27:49.275Z,1.47
2019-05-02T16:30:55.710Z,1.47
2019-05-02T16:34:00.000Z,1.10
2019-05-02T16:37:15.010Z,1.43
2019-05-02T16:40:22.043Z,1.63
2019-05-02T16:43:25.308Z,1.07
2019-05-02T16:46:29.616Z,1.20
2019-05-02T16:49:33.916Z,1.57
2019-05-02T16:52:43.658Z,1.40
2019-05-02T16:55:44.335Z,1.30
2019-05-02T16:58:48.735Z,1.63
2019-05-02T17:01:54.602Z,1.63
2019-05-02T17:05:00.185Z,1.90
2019-05-02T17:08:24.253Z,1.50
2019-05-02T17:11:35.986Z,1.43
2019-05-02T17:14:43.492Z,1.27
2019-05-02T17:17:48.027Z,2.10
2019-05-02T17:20:56.654Z,1.40
2019-05-02T17:23:58.572Z,1.33
2019-05-02T17:27:03.123Z,1.10
2019-05-02T17:30:07.773Z,1.97
2019-05-02T17:33:16.129Z,1.63
2019-05-02T17:36:21.524Z,1.03
2019-05-02T17:39:24.137Z,1.90
2019-05-02T17:42:28.399Z,1.47
2019-05-02T17:45:33.406Z,1.93
2019-05-02T17:48:39.311Z,1.43
2019-05-02T17:52:05.693Z,1.63
2019-05-02T17:55:07.571Z,1.30
2019-05-02T17:58:12.947Z,1.90
2019-05-02T18:01:26.391Z,2.73
2019-05-02T18:04:29.036Z,1.83
2019-05-02T18:07:36.047Z,1.87
2019-05-02T18:10:39.504Z,1.93
2019-05-02T18:13:44.069Z,1.93
2019-05-02T18:16:51.971Z,2.17
2019-05-02T18:19:56.606Z,2.03
2019-05-02T18:23:03.606Z,1.90
2019-05-02T18:26:08.786Z,1.50
2019-05-02T18:29:15.469Z,1.90
2019-05-02T18:32:24.545Z,1.83
2019-05-02T18:35:25.365Z,2.00
2019-05-02T18:38:29.669Z,2.53
2019-05-02T18:41:37.441Z,2.03
2019-05-02T18:44:41.944Z,2.57
2019-05-02T18:47:46.546Z,1.90
2019-05-02T18:50:52.695Z,2.50
2019-05-02T18:53:57.995Z,2.30
2019-05-02T18:57:03.229Z,1.20
2019-05-02T19:00:07.677Z,2.07
2019-05-02T19:03:17.100Z,1.70
2019-05-02T19:06:21.992Z,2.03
2019-05-02T19:09:30.165Z,1.80
2019-05-02T19:12:32.911Z,1.87
2019-05-02T19:15:39.737Z,2.30
2019-05-02T19:18:43.570Z,2.30
2019-05-02T19:21:47.957Z,1.63
2019-05-02T19:24:52.449Z,2.70
2019-05-02T19:28:02.941Z,2.83
2019-05-02T19:31:10.413Z,1.90
2019-05-02T19:34:22.900Z,2.33
2019-05-02T19:37:26.852Z,1.73
2019-05-02T19:40:31.827Z,1.30
2019-05-02T19:43:40.332Z,2.43
2019-05-02T19:46:42.409Z,1.87
2019-05-02T19:49:47.295Z,1.93
2019-05-02T19:53:01.227Z,2.17
2019-05-02T19:56:01.388Z,1.80
2019-05-02T19:59:05.201Z,1.53
2019-05-02T20:02:09.616Z,1.30
2019-05-02T20:05:16.467Z,1.57
2019-05-02T20:08:24.071Z,1.67
2019-05-02T20:11:28.089Z,2.30
2019-05-02T20:14:32.403Z,2.30
2019-05-02T20:17:36.757Z,1.60
2019-05-02T20:20:54.182Z,1.80
2019-05-02T20:24:01.332Z,2.27
2019-05-02T20:27:04.925Z,2.17
2019-05-02T20:30:09.559Z,2.20
2019-05-02T20:33:13.861Z,1.83
2019-05-02T20:36:18.223Z,2.10
2019-05-02T20:39:23.013Z,2.00
2019-05-02T20:42:27.341Z,2.03
2019-05-02T20:45:32.272Z,2.87
2019-05-02T20:48:36.732Z,2.27
2019-05-02T20:51:42.380Z,2.67
2019-05-02T20:54:46.835Z,2.63
2019-05-02T20:57:52.690Z,2.17
2019-05-02T21:01:06.206Z,2.33
2019-05-02T21:04:03.256Z,2.20
2019-05-02T21:07:29.683Z,2.40
2019-05-02T21:10:37.370Z,2.40
2019-05-02T21:13:41.887Z,1.80
2019-05-02T21:16:46.318Z,2.33
2019-05-02T21:19:50.620Z,2.10
2019-05-02T21:22:54.930Z,3.00
2019-05-02T21:25:59.238Z,2.70
2019-05-02T21:29:03.524Z,2.50
2019-05-02T21:32:07.846Z,2.40
2019-05-02T21:35:12.503Z,2.63
2019-05-02T21:38:16.919Z,2.20
2019-05-02T21:41:22.188Z,2.37
2019-05-02T21:44:26.591Z,1.97
2019-05-02T21:47:31.852Z,2.37
2019-05-02T21:50:47.789Z,2.20
2019-05-02T21:54:09.451Z,2.33
2019-05-02T21:57:16.330Z,2.07
2019-05-02T22:00:46.709Z,2.17
2019-05-02T22:03:51.025Z,2.23
2019-05-02T22:06:55.343Z,2.23
2019-05-02T22:10:00.515Z,2.30
2019-05-02T22:13:04.814Z,2.37
2019-05-02T22:16:09.140Z,2.80
2019-05-02T22:19:13.452Z,2.30
2019-05-02T22:22:17.756Z,2.90
2019-05-02T22:25:22.263Z,2.37
2019-05-02T22:28:26.534Z,2.47
2019-05-02T22:31:32.390Z,3.13
2019-05-02T22:34:36.824Z,2.40
2019-05-02T22:37:42.766Z,2.70
2019-05-02T22:40:49.506Z,2.63
2019-05-02T22:43:53.816Z,2.60
2019-05-02T22:46:58.196Z,2.53
2019-05-02T22:50:02.498Z,2.13
2019-05-02T22:53:06.791Z,3.50
2019-05-02T22:56:11.769Z,2.20
2019-05-02T22:59:17.125Z,2.40
2019-05-02T23:02:21.929Z,2.67
2019-05-02T23:05:26.364Z,2.37
2019-05-02T23:08:30.683Z,2.83
2019-05-02T23:11:35.010Z,2.87
2019-05-02T23:14:39.301Z,2.80
2019-05-02T23:17:43.591Z,2.83
2019-05-02T23:20:47.895Z,2.83
2019-05-02T23:23:52.399Z,2.70
2019-05-02T23:27:13.166Z,3.03
2019-05-02T23:30:22.414Z,2.63
2019-05-02T23:33:29.195Z,2.97
2019-05-02T23:36:33.603Z,2.97
2019-05-02T23:39:37.891Z,3.60
2019-05-02T23:42:42.221Z,2.60
2019-05-02T23:45:46.547Z,2.63
2019-05-02T23:48:52.642Z,2.83
2019-05-02T23:51:56.983Z,2.70
2019-05-02T23:55:03.008Z,3.10
2019-05-02T23:58:07.356Z,3.23
